createdAt,value
2019-04-25T00:01:11.608Z,22.66
2019-04-25T00:03:38.392Z,22.64
2019-04-25T00:06:05.172Z,22.68
2019-04-25T00:08:33.160Z,22.67
2019-04-25T00:11:01.705Z,22.63
2019-04-25T00:13:27.273Z,22.61
2019-04-25T00:15:54.425Z,22.62
2019-04-25T00:18:23.360Z,22.62
2019-04-25T00:20:52.283Z,22.60
2019-04-25T00:23:18.603Z,22.59
2019-04-25T00:25:47.148Z,22.56
2019-04-25T00:28:12.128Z,22.57
2019-04-25T00:30:40.309Z,22.56
2019-04-25T00:33:05.670Z,22.52
2019-04-25T00:35:32.510Z,22.53
2019-04-25T00:37:59.354Z,22.55
2019-04-25T00:40:26.056Z,22.50
2019-04-25T00:42:53.842Z,22.52
2019-04-25T00:45:19.674Z,22.49
2019-04-25T00:47:46.384Z,22.50
2019-04-25T00:50:13.156Z,22.47
2019-04-25T00:52:41.443Z,22.46
2019-04-25T00:55:06.840Z,22.46
2019-04-25T00:57:33.536Z,22.48
2019-04-25T01:00:01.846Z,22.44
2019-04-25T01:02:27.047Z,22.44
2019-04-25T01:04:54.371Z,22.45
2019-04-25T01:07:22.395Z,22.42
2019-04-25T01:09:47.904Z,22.42
2019-04-25T01:12:15.304Z,22.41
2019-04-25T01:14:42.511Z,22.40
2019-04-25T01:17:09.331Z,22.37
2019-04-25T01:19:38.338Z,22.37
2019-04-25T01:24:33.909Z,22.34
2019-04-25T01:26:59.084Z,22.33
2019-04-25T01:29:26.138Z,22.33
2019-04-25T01:31:54.418Z,22.32
2019-04-25T01:34:20.654Z,22.29
2019-04-25T01:36:47.417Z,22.28
2019-04-25T01:39:14.411Z,22.22
2019-04-25T01:41:40.905Z,22.22
2019-04-25T01:44:08.147Z,22.26
2019-04-25T01:46:35.053Z,22.28
2019-04-25T01:49:01.744Z,22.24
2019-04-25T01:51:28.514Z,22.20
2019-04-25T01:53:56.812Z,22.25
2019-04-25T01:56:24.606Z,22.19
2019-04-25T01:58:49.813Z,22.22
2019-04-25T02:01:18.297Z,22.19
2019-04-25T02:03:45.507Z,22.17
2019-04-25T02:06:13.630Z,22.16
2019-04-25T02:08:39.395Z,22.21
2019-04-25T02:11:06.224Z,22.15
2019-04-25T02:13:33.597Z,22.16
2019-04-25T02:15:59.793Z,22.10
2019-04-25T02:18:27.827Z,22.11
2019-04-25T02:20:57.907Z,22.10
2019-04-25T02:23:21.358Z,22.12
2019-04-25T02:25:48.095Z,22.09
2019-04-25T02:28:15.864Z,22.07
2019-04-25T02:30:41.566Z,22.06
2019-04-25T02:33:09.246Z,22.02
2019-04-25T02:35:35.167Z,22.03
2019-04-25T02:38:04.595Z,22.03
2019-04-25T02:40:28.603Z,22.07
2019-04-25T02:42:57.335Z,22.01
2019-04-25T02:45:24.408Z,21.99
2019-04-25T02:47:48.839Z,22.00
2019-04-25T02:50:15.621Z,21.95
2019-04-25T02:52:44.242Z,21.95
2019-04-25T02:55:11.088Z,22.00
2019-04-25T02:57:36.227Z,21.95
2019-04-25T03:00:05.968Z,21.92
2019-04-25T03:02:29.796Z,21.95
2019-04-25T03:04:58.376Z,21.93
2019-04-25T03:07:24.656Z,21.88
2019-04-25T03:12:29.175Z,21.85
2019-04-25T03:14:44.695Z,21.78
2019-04-25T03:17:11.378Z,21.82
2019-04-25T03:19:38.097Z,21.85
2019-04-25T03:22:09.157Z,21.84
2019-04-25T03:24:34.927Z,21.87
2019-04-25T03:26:59.404Z,21.86
2019-04-25T03:29:25.792Z,21.86
2019-04-25T03:31:55.618Z,21.81
2019-04-25T03:34:20.756Z,21.83
2019-04-25T03:36:46.278Z,21.83
2019-04-25T03:39:16.270Z,21.83
2019-04-25T03:41:39.793Z,21.84
2019-04-25T03:44:10.148Z,21.89
2019-04-25T03:46:36.858Z,21.86
2019-04-25T03:49:05.015Z,21.85
2019-04-25T03:51:30.554Z,21.83
2019-04-25T03:53:57.752Z,21.81
2019-04-25T03:56:24.934Z,21.81
2019-04-25T03:58:51.435Z,21.83
2019-04-25T04:01:18.153Z,21.82
2019-04-25T04:06:11.805Z,21.79
2019-04-25T04:08:38.546Z,21.75
2019-04-25T04:11:07.324Z,21.74
2019-04-25T04:13:32.028Z,21.81
2019-04-25T04:15:58.870Z,21.85
2019-04-25T04:18:27.038Z,21.86
2019-04-25T04:20:53.487Z,21.80
2019-04-25T04:23:19.116Z,21.92
2019-04-25T04:28:14.055Z,21.73
2019-04-25T04:30:39.616Z,21.80
2019-04-25T04:33:06.976Z,21.82
2019-04-25T04:35:33.623Z,21.88
2019-04-25T04:38:00.009Z,21.93
2019-04-25T04:40:26.780Z,21.99
2019-04-25T04:42:53.623Z,22.05
2019-04-25T04:45:20.336Z,22.08
2019-04-25T04:50:15.320Z,22.09
2019-04-25T04:52:40.990Z,22.19
2019-04-25T04:55:09.719Z,22.28
2019-04-25T04:57:36.270Z,22.26
2019-04-25T05:00:01.514Z,22.31
2019-04-25T05:02:30.406Z,22.34
2019-04-25T05:04:57.613Z,22.37
2019-04-25T05:07:25.381Z,22.41
2019-04-25T05:09:51.285Z,22.43
2019-04-25T05:12:19.302Z,22.55
2019-04-25T05:14:45.443Z,22.58
2019-04-25T05:17:16.347Z,22.59
2019-04-25T05:19:43.439Z,22.65
2019-04-25T05:22:09.681Z,22.67
2019-04-25T05:24:36.619Z,22.69
2019-04-25T05:27:03.854Z,22.80
2019-04-25T05:29:30.380Z,22.85
2019-04-25T05:31:57.078Z,22.89
2019-04-25T05:34:25.613Z,22.93
2019-04-25T05:36:50.810Z,22.96
2019-04-25T05:39:18.186Z,23.04
2019-04-25T05:41:44.591Z,23.11
2019-04-25T05:44:11.748Z,23.24
2019-04-25T05:46:38.947Z,23.28
2019-04-25T05:49:05.736Z,23.37
2019-04-25T05:51:33.837Z,23.32
2019-04-25T05:53:59.682Z,23.35
2019-04-25T05:56:28.281Z,23.45
2019-04-25T05:58:54.146Z,23.56
2019-04-25T06:01:21.291Z,23.53
2019-04-25T06:03:48.177Z,23.59
2019-04-25T06:06:15.290Z,23.60
2019-04-25T06:11:11.235Z,23.70
2019-04-25T06:13:38.929Z,23.76
2019-04-25T06:16:09.027Z,23.82
2019-04-25T06:18:40.595Z,23.82
2019-04-25T06:21:08.257Z,23.92
2019-04-25T06:23:39.986Z,23.96
2019-04-25T06:26:19.079Z,24.02
2019-04-25T06:28:49.004Z,24.08
2019-04-25T06:31:10.262Z,24.15
2019-04-25T06:33:35.935Z,24.20
2019-04-25T06:36:06.823Z,24.24
2019-04-25T06:38:37.247Z,24.27
2019-04-25T06:41:05.638Z,24.33
2019-04-25T06:43:34.316Z,24.40
2019-04-25T06:46:06.478Z,24.45
2019-04-25T06:48:38.270Z,24.53
2019-04-25T06:51:06.011Z,24.61
2019-04-25T06:53:34.842Z,24.72
2019-04-25T06:56:11.308Z,24.82
2019-04-25T06:58:38.917Z,24.72
2019-04-25T07:01:11.414Z,24.80
2019-04-25T07:03:44.258Z,24.80
2019-04-25T07:06:12.942Z,24.91
2019-04-25T07:08:46.611Z,24.88
2019-04-25T07:11:14.468Z,24.89
2019-04-25T07:13:45.641Z,25.07
2019-04-25T07:16:23.164Z,25.10
2019-04-25T07:18:50.933Z,25.13
2019-04-25T07:21:20.618Z,25.16
2019-04-25T07:23:51.444Z,25.04
2019-04-25T07:26:20.672Z,25.18
2019-04-25T07:28:55.392Z,25.34
2019-04-25T07:31:29.093Z,25.32
2019-04-25T07:34:14.581Z,25.31
2019-04-25T07:36:47.069Z,25.27
2019-04-25T07:39:27.887Z,25.37
2019-04-25T07:42:05.013Z,25.36
2019-04-25T07:44:49.117Z,25.40
2019-04-25T07:47:11.218Z,25.48
2019-04-25T07:49:43.280Z,25.39
2019-04-25T07:52:11.573Z,25.34
2019-04-25T07:54:44.063Z,25.37
2019-04-25T07:57:11.669Z,25.49
2019-04-25T07:59:45.443Z,25.57
2019-04-25T08:02:29.685Z,25.68
2019-04-25T08:05:25.342Z,25.57
2019-04-25T08:08:08.257Z,25.70
2019-04-25T08:10:36.027Z,25.69
2019-04-25T08:13:08.187Z,25.59
2019-04-25T08:15:39.227Z,25.70
2019-04-25T08:18:06.612Z,25.71
2019-04-25T08:20:35.779Z,25.60
2019-04-25T08:23:05.394Z,25.53
2019-04-25T08:25:37.648Z,25.53
2019-04-25T08:28:04.606Z,25.51
2019-04-25T08:30:34.180Z,25.61
2019-04-25T08:33:05.097Z,25.57
2019-04-25T08:35:34.286Z,25.66
2019-04-25T08:38:01.392Z,25.64
2019-04-25T08:40:35.679Z,25.75
2019-04-25T08:43:00.175Z,25.61
2019-04-25T08:45:27.599Z,25.67
2019-04-25T08:47:55.111Z,25.71
2019-04-25T08:50:29.048Z,25.61
2019-04-25T08:52:50.096Z,25.58
2019-04-25T08:55:20.872Z,25.71
2019-04-25T08:57:48.718Z,25.65
2019-04-25T09:00:14.379Z,25.62
2019-04-25T09:02:40.839Z,25.59
2019-04-25T09:05:07.479Z,25.66
2019-04-25T09:07:35.395Z,25.58
2019-04-25T09:10:00.740Z,25.69
2019-04-25T09:12:27.426Z,25.67
2019-04-25T09:14:54.288Z,25.61
2019-04-25T09:17:20.750Z,25.64
2019-04-25T09:19:47.400Z,25.66
2019-04-25T09:22:14.083Z,25.77
2019-04-25T09:24:40.740Z,25.69
2019-04-25T09:27:07.395Z,25.72
2019-04-25T09:29:35.246Z,25.74
2019-04-25T09:32:00.694Z,25.82
2019-04-25T09:34:27.348Z,25.86
2019-04-25T09:36:54.030Z,25.90
2019-04-25T09:39:20.681Z,25.73
2019-04-25T09:41:47.316Z,25.64
2019-04-25T09:44:14.437Z,25.67
2019-04-25T09:46:40.655Z,25.79
2019-04-25T09:49:07.298Z,25.81
2019-04-25T09:51:33.958Z,25.80
2019-04-25T09:54:00.601Z,25.95
2019-04-25T09:56:27.276Z,25.95
2019-04-25T09:58:54.025Z,25.89
2019-04-25T10:01:20.548Z,26.00
2019-04-25T10:03:47.399Z,26.03
2019-04-25T10:06:13.870Z,25.92
2019-04-25T10:08:41.097Z,25.95
2019-04-25T10:11:07.160Z,25.96
2019-04-25T10:13:33.815Z,26.07
2019-04-25T10:16:00.464Z,26.04
2019-04-25T10:18:27.136Z,26.05
2019-04-25T10:20:54.207Z,26.00
2019-04-25T10:23:20.464Z,26.09
2019-04-25T10:28:13.802Z,26.12
2019-04-25T10:30:41.050Z,26.16
2019-04-25T10:33:07.126Z,26.18
2019-04-25T10:35:46.439Z,26.18
2019-04-25T10:38:00.458Z,26.22
2019-04-25T10:40:27.102Z,26.23
2019-04-25T10:42:53.731Z,26.23
2019-04-25T10:45:23.515Z,26.26
2019-04-25T10:47:47.005Z,26.26
2019-04-25T10:50:16.775Z,26.30
2019-04-25T10:52:45.808Z,26.32
2019-04-25T10:55:11.147Z,26.35
2019-04-25T10:57:37.790Z,26.36
2019-04-25T11:00:08.982Z,26.41
2019-04-25T11:02:31.133Z,26.44
2019-04-25T11:04:57.776Z,26.49
2019-04-25T11:07:24.409Z,26.44
2019-04-25T11:09:51.350Z,26.45
2019-04-25T11:12:17.713Z,26.52
2019-04-25T11:14:44.397Z,26.47
2019-04-25T11:17:11.041Z,26.50
2019-04-25T11:19:37.681Z,26.55
2019-04-25T11:22:04.331Z,26.57
2019-04-25T11:24:30.973Z,26.58
2019-04-25T11:26:57.610Z,26.47
2019-04-25T11:29:24.246Z,26.57
2019-04-25T11:31:50.941Z,26.57
2019-04-25T11:34:17.526Z,26.61
2019-04-25T11:36:44.286Z,26.61
2019-04-25T11:39:10.927Z,26.56
2019-04-25T11:41:37.566Z,26.55
2019-04-25T11:44:04.570Z,26.55
2019-04-25T11:46:31.208Z,26.66
2019-04-25T11:48:57.862Z,26.71
2019-04-25T11:51:24.503Z,26.70
2019-04-25T11:53:51.572Z,26.63
2019-04-25T11:56:17.808Z,26.68
2019-04-25T11:58:45.642Z,26.71
2019-04-25T12:01:11.116Z,26.74
2019-04-25T12:03:37.754Z,26.66
2019-04-25T12:06:04.411Z,26.77
2019-04-25T12:08:31.048Z,26.82
2019-04-25T12:10:57.703Z,26.75
2019-04-25T12:13:24.390Z,26.84
2019-04-25T12:15:51.846Z,26.87
2019-04-25T12:18:17.644Z,26.87
2019-04-25T12:20:47.519Z,26.83
2019-04-25T12:23:16.479Z,26.68
2019-04-25T12:25:40.978Z,26.82
2019-04-25T12:28:07.613Z,26.81
2019-04-25T12:30:39.810Z,26.88
2019-04-25T12:33:00.903Z,26.81
2019-04-25T12:35:27.559Z,26.93
2019-04-25T12:37:57.200Z,26.98
2019-04-25T12:40:24.303Z,27.03
2019-04-25T12:42:52.789Z,27.03
2019-04-25T12:45:17.192Z,27.01
2019-04-25T12:47:43.842Z,27.05
2019-04-25T12:50:10.488Z,27.06
2019-04-25T12:52:37.131Z,27.04
2019-04-25T12:55:04.059Z,27.08
2019-04-25T12:57:30.412Z,27.11
2019-04-25T12:59:57.599Z,27.10
2019-04-25T13:02:23.698Z,27.08
2019-04-25T13:04:50.475Z,27.14
2019-04-25T13:07:16.993Z,27.16
2019-04-25T13:09:43.623Z,27.20
2019-04-25T13:14:36.918Z,27.25
2019-04-25T13:17:06.517Z,27.25
2019-04-25T13:19:30.204Z,27.23
2019-04-25T13:21:57.094Z,26.98
2019-04-25T13:24:23.501Z,26.99
2019-04-25T13:26:50.169Z,26.96
2019-04-25T13:29:16.839Z,26.97
2019-04-25T13:31:44.301Z,27.00
2019-04-25T13:34:10.120Z,27.03
2019-04-25T13:36:36.756Z,26.98
2019-04-25T13:39:04.341Z,26.79
2019-04-25T13:41:30.086Z,26.83
2019-04-25T13:43:57.676Z,27.01
2019-04-25T13:46:26.095Z,27.05
2019-04-25T13:48:50.010Z,26.99
2019-04-25T13:51:16.698Z,27.03
2019-04-25T13:53:43.502Z,27.03
2019-04-25T13:56:10.018Z,26.92
2019-04-25T13:58:36.656Z,26.87
2019-04-25T14:01:12.950Z,26.93
2019-04-25T14:03:29.939Z,26.97
2019-04-25T14:05:56.592Z,26.91
2019-04-25T14:08:24.675Z,26.81
2019-04-25T14:10:49.862Z,26.84
2019-04-25T14:13:16.496Z,26.94
2019-04-25T14:15:44.969Z,26.96
2019-04-25T14:18:09.777Z,26.87
2019-04-25T14:20:36.438Z,26.70
2019-04-25T14:23:03.524Z,26.76
2019-04-25T14:25:29.837Z,26.66
2019-04-25T14:27:56.352Z,26.63
2019-04-25T14:32:49.684Z,26.52
2019-04-25T14:35:16.325Z,26.55
2019-04-25T14:37:43.935Z,26.59
2019-04-25T14:40:09.601Z,26.51
2019-04-25T14:42:36.238Z,26.50
2019-04-25T14:45:02.875Z,26.47
2019-04-25T14:47:29.628Z,26.46
2019-04-25T14:49:56.160Z,26.42
2019-04-25T14:52:24.395Z,26.40
2019-04-25T14:54:49.434Z,26.39
2019-04-25T14:57:16.120Z,26.36
2019-04-25T14:59:42.764Z,26.34
2019-04-25T15:02:09.398Z,26.28
2019-04-25T15:04:36.048Z,26.26
2019-04-25T15:07:02.692Z,26.24
2019-04-25T15:09:29.343Z,26.19
2019-04-25T15:11:55.978Z,26.16
2019-04-25T15:14:23.541Z,26.11
2019-04-25T15:16:49.254Z,26.09
2019-04-25T15:19:15.895Z,26.06
2019-04-25T15:21:42.527Z,26.07
2019-04-25T15:24:09.178Z,26.05
2019-04-25T15:26:35.818Z,26.00
2019-04-25T15:29:02.456Z,25.99
2019-04-25T15:31:29.994Z,25.96
2019-04-25T15:33:55.762Z,25.95
2019-04-25T15:36:22.401Z,25.90
2019-04-25T15:38:49.046Z,25.94
2019-04-25T15:41:15.677Z,25.90
2019-04-25T15:43:42.324Z,25.86
2019-04-25T15:46:08.962Z,25.84
2019-04-25T15:48:35.628Z,25.76
2019-04-25T15:51:02.267Z,25.75
2019-04-25T15:53:29.344Z,25.76
2019-04-25T15:55:55.555Z,25.74
2019-04-25T15:58:22.195Z,25.69
2019-04-25T16:00:48.862Z,25.65
2019-04-25T16:03:15.499Z,25.71
2019-04-25T16:05:42.145Z,25.66
2019-04-25T16:08:08.824Z,25.70
2019-04-25T16:10:36.446Z,25.67
2019-04-25T16:13:02.107Z,25.64
2019-04-25T16:15:29.066Z,25.59
2019-04-25T16:17:55.474Z,25.58
2019-04-25T16:20:22.123Z,25.58
2019-04-25T16:25:15.412Z,25.54
2019-04-25T16:27:42.048Z,25.54
2019-04-25T16:30:08.702Z,25.53
2019-04-25T16:32:35.367Z,25.54
2019-04-25T16:35:01.998Z,25.53
2019-04-25T16:37:29.180Z,25.50
2019-04-25T16:39:55.278Z,25.46
2019-04-25T16:42:21.907Z,25.44
2019-04-25T16:44:48.639Z,25.43
2019-04-25T16:47:15.281Z,25.42
2019-04-25T16:49:42.043Z,25.38
2019-04-25T16:52:08.711Z,25.37
2019-04-25T16:54:35.927Z,25.36
2019-04-25T16:57:01.984Z,25.34
2019-04-25T16:59:29.518Z,25.35
2019-04-25T17:01:55.386Z,25.31
2019-04-25T17:04:22.069Z,25.31
2019-04-25T17:06:48.718Z,25.34
2019-04-25T17:09:15.354Z,25.30
2019-04-25T17:11:42.023Z,25.31
2019-04-25T17:14:08.672Z,25.25
2019-04-25T17:16:35.309Z,25.22
2019-04-25T17:19:01.988Z,25.20
2019-04-25T17:21:28.693Z,25.23
2019-04-25T17:23:55.333Z,25.19
2019-04-25T17:26:21.987Z,25.19
2019-04-25T17:28:48.622Z,25.19
2019-04-25T17:31:15.262Z,25.10
2019-04-25T17:33:42.510Z,25.08
2019-04-25T17:36:08.545Z,25.09
2019-04-25T17:38:35.487Z,25.07
2019-04-25T17:43:28.478Z,25.22
2019-04-25T17:45:55.122Z,25.13
2019-04-25T17:48:21.760Z,25.02
2019-04-25T17:50:48.399Z,25.06
2019-04-25T17:53:15.059Z,25.03
2019-04-25T17:55:41.690Z,25.04
2019-04-25T17:58:08.367Z,25.03
2019-04-25T18:00:35.318Z,25.04
2019-04-25T18:05:28.306Z,24.96
2019-04-25T18:07:54.947Z,24.98
2019-04-25T18:10:21.600Z,24.99
2019-04-25T18:12:48.239Z,24.98
2019-04-25T18:15:14.912Z,24.96
2019-04-25T18:17:42.370Z,24.90
2019-04-25T18:20:08.201Z,24.91
2019-04-25T18:22:35.352Z,24.90
2019-04-25T18:25:01.479Z,24.88
2019-04-25T18:27:28.113Z,24.90
2019-04-25T18:29:54.758Z,24.88
2019-04-25T18:32:21.397Z,24.83
2019-04-25T18:34:48.048Z,24.84
2019-04-25T18:39:41.959Z,24.78
2019-04-25T18:42:08.187Z,24.79
2019-04-25T18:44:35.623Z,24.77
2019-04-25T18:47:01.314Z,24.74
2019-04-25T18:49:27.962Z,24.76
2019-04-25T18:51:57.975Z,24.74
2019-04-25T18:54:21.327Z,24.76
2019-04-25T18:56:47.968Z,24.74
2019-04-25T18:59:14.710Z,24.74
2019-04-25T19:01:41.669Z,24.70
2019-04-25T19:04:07.982Z,24.71
2019-04-25T19:06:34.619Z,24.67
2019-04-25T19:09:01.266Z,24.66
2019-04-25T19:13:54.548Z,24.64
2019-04-25T19:16:21.194Z,24.65
2019-04-25T19:18:48.051Z,24.63
2019-04-25T19:21:14.556Z,24.64
2019-04-25T19:23:41.793Z,24.59
2019-04-25T19:26:07.836Z,24.51
2019-04-25T19:28:34.525Z,24.59
2019-04-25T19:31:01.127Z,24.59
2019-04-25T19:33:35.527Z,24.55
2019-04-25T19:35:54.409Z,24.52
2019-04-25T19:38:21.049Z,24.44
2019-04-25T19:40:48.124Z,24.51
2019-04-25T19:43:14.412Z,24.45
2019-04-25T19:45:41.070Z,24.42
2019-04-25T19:48:07.700Z,24.46
2019-04-25T19:50:34.334Z,24.46
2019-04-25T19:53:00.979Z,24.43
2019-04-25T19:55:27.618Z,24.43
2019-04-25T19:57:54.246Z,24.43
2019-04-25T20:00:20.886Z,24.40
2019-04-25T20:02:48.647Z,24.42
2019-04-25T20:05:14.186Z,24.35
2019-04-25T20:07:43.735Z,24.37
2019-04-25T20:10:07.458Z,24.36
2019-04-25T20:12:34.111Z,24.32
2019-04-25T20:15:00.765Z,24.35
2019-04-25T20:17:27.403Z,24.31
2019-04-25T20:19:54.056Z,24.32
2019-04-25T20:22:20.703Z,24.31
2019-04-25T20:24:48.253Z,24.23
2019-04-25T20:27:13.990Z,24.27
2019-04-25T20:29:40.634Z,24.25
2019-04-25T20:32:07.325Z,24.27
2019-04-25T20:34:33.920Z,24.24
2019-04-25T20:37:00.591Z,24.18
2019-04-25T20:39:27.830Z,24.21
2019-04-25T20:41:53.970Z,24.17
2019-04-25T20:44:20.508Z,24.15
2019-04-25T20:46:47.144Z,24.16
2019-04-25T20:49:13.792Z,24.12
2019-04-25T20:51:40.438Z,24.15
2019-04-25T20:54:07.092Z,24.12
2019-04-25T20:56:33.728Z,24.12
2019-04-25T20:59:00.370Z,24.09
2019-04-25T21:01:27.052Z,24.11
2019-04-25T21:03:54.086Z,24.05
2019-04-25T21:06:20.340Z,24.06
2019-04-25T21:08:47.024Z,24.02
2019-04-25T21:11:13.663Z,23.99
2019-04-25T21:13:40.301Z,24.03
2019-04-25T21:16:06.943Z,23.99
2019-04-25T21:18:33.581Z,24.04
2019-04-25T21:21:01.230Z,23.99
2019-04-25T21:23:26.894Z,23.99
2019-04-25T21:25:53.534Z,23.98
2019-04-25T21:28:20.173Z,23.98
2019-04-25T21:30:46.857Z,23.92
2019-04-25T21:33:13.492Z,23.90
2019-04-25T21:35:40.135Z,23.91
2019-04-25T21:38:06.788Z,23.91
2019-04-25T21:40:33.480Z,23.86
2019-04-25T21:43:00.234Z,23.86
2019-04-25T21:45:26.791Z,23.84
2019-04-25T21:47:54.044Z,23.85
2019-04-25T21:50:20.155Z,23.83
2019-04-25T21:52:46.796Z,23.82
2019-04-25T21:55:13.486Z,23.82
2019-04-25T21:57:40.124Z,23.77
2019-04-25T22:00:09.242Z,23.79
2019-04-25T22:02:33.515Z,23.75
2019-04-25T22:05:00.565Z,23.77
2019-04-25T22:07:26.873Z,23.79
2019-04-25T22:09:55.450Z,23.76
2019-04-25T22:12:20.128Z,23.76
2019-04-25T22:14:46.809Z,23.71
2019-04-25T22:17:13.452Z,23.70
2019-04-25T22:19:40.090Z,23.75
2019-04-25T22:22:06.894Z,23.72
2019-04-25T22:24:33.418Z,23.67
2019-04-25T22:27:00.874Z,23.69
2019-04-25T22:29:26.766Z,23.75
2019-04-25T22:31:53.405Z,23.66
2019-04-25T22:34:20.043Z,23.65
2019-04-25T22:36:46.690Z,23.66
2019-04-25T22:39:13.331Z,23.66
2019-04-25T22:41:39.979Z,23.62
2019-04-25T22:44:06.626Z,23.60
2019-04-25T22:46:33.298Z,23.56
2019-04-25T22:49:00.061Z,23.59
2019-04-25T22:51:26.618Z,23.61
2019-04-25T22:53:53.348Z,23.59
2019-04-25T22:56:20.027Z,23.57
2019-04-25T22:58:46.738Z,23.51
2019-04-25T23:01:13.308Z,23.55
2019-04-25T23:03:39.953Z,23.50
2019-04-25T23:06:07.382Z,23.49
2019-04-25T23:08:33.220Z,23.50
2019-04-25T23:10:59.866Z,23.51
2019-04-25T23:13:26.505Z,23.51
2019-04-25T23:15:53.186Z,23.49
2019-04-25T23:18:19.871Z,23.50
2019-04-25T23:20:46.567Z,23.45
2019-04-25T23:23:13.775Z,23.47
2019-04-25T23:25:39.842Z,23.43
2019-04-25T23:28:06.497Z,23.42
2019-04-25T23:30:33.129Z,23.39
2019-04-25T23:32:59.763Z,23.40
2019-04-25T23:35:30.870Z,23.39
2019-04-25T23:37:53.043Z,23.39
2019-04-25T23:40:19.682Z,23.35
2019-04-25T23:42:46.374Z,23.35
2019-04-25T23:45:13.018Z,23.35
2019-04-25T23:47:39.650Z,23.36
2019-04-25T23:50:07.151Z,23.33
2019-04-25T23:52:32.939Z,23.33
2019-04-25T23:54:59.591Z,23.33
2019-04-25T23:57:26.230Z,23.27
2019-04-25T23:59:52.870Z,23.33
